Terminal Aerodrome Forecast
Issued by NWS Shreveport, LA

Home | Current Version | Previous Version | Text Only | Print | Product List | Glossary On
Versions: 1 2 3 4 5 6 7 8 9 10 11 12 13 14 15 16 17 18 19 20 21
000
FTUS44 KSHV 271735
TAFTYR
TAF
KTYR 271735Z 2718/2818 VRB05KT P6SM -SHRA VCTS SCT050 OVC700CB
     FM272200 17008KT P6SM VCSH SCT020 OVC050
     FM280500 18009KT P6SM BKN015 OVC040=

USA.gov is the U.S. government's official web portal to all federal, state and local government web resources and services.